Terminal Aerodrome Forecast
Issued by NWS

Home | Current Version | Previous Version | Text Only | Print | Product List | Glossary On
Versions: 1 2 3 4 5 6 7 8 9 10 11 12 13
000
FTUS43 KDTX 312327
TAFMBS
TAF
KMBS 312327Z 0100/0124 04013KT P6SM BKN250
     FM010200 07005KT P6SM SCT150 BKN250
     FM011400 12010KT P6SM BKN200
     FM012200 15010KT 6SM -SHRA OVC070=

USA.gov is the U.S. government's official web portal to all federal, state and local government web resources and services.